createdAt,value
2018-10-09T00:01:50.461Z,101597.42
2018-10-09T00:04:18.708Z,101593.66
2018-10-09T00:06:46.932Z,101603.47
2018-10-09T00:09:15.150Z,101595.20
2018-10-09T00:11:43.353Z,101599.27
2018-10-09T00:14:11.567Z,101595.03
2018-10-09T00:16:39.784Z,101585.66
2018-10-09T00:19:08.009Z,101580.42
2018-10-09T00:21:36.237Z,101577.23
2018-10-09T00:24:04.481Z,101574.11
2018-10-09T00:26:32.705Z,101564.77
2018-10-09T00:29:00.950Z,101560.62
2018-10-09T00:31:29.170Z,101555.96
2018-10-09T00:33:57.398Z,101557.72
2018-10-09T00:36:25.693Z,101544.83
2018-10-09T00:38:53.928Z,101548.55
2018-10-09T00:41:22.158Z,101543.18
2018-10-09T00:43:50.399Z,101542.13
2018-10-09T00:46:18.634Z,101543.98
2018-10-09T00:48:46.907Z,101546.03
2018-10-09T00:51:15.189Z,101552.94
2018-10-09T00:53:43.402Z,101550.34
2018-10-09T00:56:11.653Z,101544.61
2018-10-09T00:58:39.857Z,101541.49
2018-10-09T01:01:08.337Z,101533.85
2018-10-09T01:03:36.585Z,101528.27
2018-10-09T01:06:04.893Z,101519.81
2018-10-09T01:08:33.120Z,101514.36
2018-10-09T01:11:01.853Z,101505.66
2018-10-09T01:13:31.194Z,101508.41
2018-10-09T01:15:59.417Z,101503.21
2018-10-09T01:18:27.628Z,101495.99
2018-10-09T01:20:55.888Z,101491.78
2018-10-09T01:23:24.077Z,101484.48
2018-10-09T01:25:52.318Z,101495.11
2018-10-09T01:28:20.574Z,101490.64
2018-10-09T01:30:48.816Z,101493.30
2018-10-09T01:33:20.117Z,101491.22
2018-10-09T01:35:48.337Z,101498.08
2018-10-09T01:38:16.573Z,101502.55
2018-10-09T01:40:44.817Z,101499.98
2018-10-09T01:43:13.014Z,101504.22
2018-10-09T01:45:41.215Z,101506.03
2018-10-09T01:48:09.457Z,101512.01
2018-10-09T01:50:37.760Z,101510.70
2018-10-09T01:53:06.028Z,101508.79
2018-10-09T01:55:34.240Z,101503.98
2018-10-09T01:58:02.501Z,101503.17
2018-10-09T02:00:30.689Z,101507.33
2018-10-09T02:02:58.921Z,101499.92
2018-10-09T02:05:27.153Z,101494.37
2018-10-09T02:07:55.498Z,101507.22
2018-10-09T02:10:23.744Z,101505.70
2018-10-09T02:12:51.970Z,101512.06
2018-10-09T02:15:20.235Z,101510.66
2018-10-09T02:17:48.711Z,101508.72
2018-10-09T02:20:16.953Z,101506.76
2018-10-09T02:22:46.082Z,101510.27
2018-10-09T02:25:14.298Z,101511.31
2018-10-09T02:27:42.544Z,101506.96
2018-10-09T02:30:11.138Z,101507.18
2018-10-09T02:32:39.386Z,101514.72
2018-10-09T02:35:07.628Z,101503.67
2018-10-09T02:37:39.742Z,101512.08
2018-10-09T02:40:08.021Z,101520.09
2018-10-09T02:42:36.258Z,101534.02
2018-10-09T02:47:55.275Z,101535.58
2018-10-09T02:50:25.585Z,101530.58
2018-10-09T02:52:53.816Z,101534.52
2018-10-09T02:55:22.067Z,101523.79
2018-10-09T02:57:50.268Z,101510.55
2018-10-09T03:00:18.500Z,101506.84
2018-10-09T03:02:46.730Z,101511.08
2018-10-09T03:05:14.957Z,101508.30
2018-10-09T03:07:43.253Z,101499.17
2018-10-09T03:10:11.456Z,101491.08
2018-10-09T03:12:40.403Z,101486.31
2018-10-09T03:15:08.771Z,101487.02
2018-10-09T03:17:37.005Z,101484.01
2018-10-09T03:20:05.278Z,101482.34
2018-10-09T03:22:33.471Z,101486.19
2018-10-09T03:25:01.673Z,101485.57
2018-10-09T03:27:42.333Z,101477.91
2018-10-09T03:30:11.657Z,101480.05
2018-10-09T03:32:39.861Z,101472.77
2018-10-09T03:35:08.286Z,101474.23
2018-10-09T03:37:36.691Z,101471.72
2018-10-09T03:40:04.985Z,101464.59
2018-10-09T03:42:33.243Z,101467.83
2018-10-09T03:45:01.810Z,101461.35
2018-10-09T03:47:30.052Z,101455.67
2018-10-09T03:49:58.268Z,101450.37
2018-10-09T03:52:26.495Z,101450.52
2018-10-09T03:54:54.730Z,101445.98
2018-10-09T03:57:22.986Z,101444.70
2018-10-09T03:59:51.189Z,101440.06
2018-10-09T04:02:19.401Z,101443.41
2018-10-09T04:04:47.734Z,101447.84
2018-10-09T04:07:15.981Z,101438.69
2018-10-09T04:09:44.576Z,101434.30
2018-10-09T04:12:12.783Z,101428.23
2018-10-09T04:14:42.036Z,101431.57
2018-10-09T04:17:10.269Z,101429.27
2018-10-09T04:19:38.484Z,101428.36
2018-10-09T04:22:07.873Z,101433.02
2018-10-09T04:24:36.138Z,101430.61
2018-10-09T04:27:04.514Z,101426.98
2018-10-09T04:29:32.832Z,101425.80
2018-10-09T04:32:00.981Z,101429.84
2018-10-09T04:34:29.216Z,101426.22
2018-10-09T04:36:57.453Z,101428.24
2018-10-09T04:39:25.676Z,101426.64
2018-10-09T04:41:53.896Z,101422.91
2018-10-09T04:44:22.110Z,101425.16
2018-10-09T04:46:50.350Z,101426.05
2018-10-09T04:49:18.570Z,101433.12
2018-10-09T04:51:46.801Z,101432.28
2018-10-09T04:54:15.046Z,101442.69
2018-10-09T04:56:43.286Z,101439.97
2018-10-09T04:59:11.577Z,101434.55
2018-10-09T05:01:39.778Z,101432.95
2018-10-09T05:04:07.989Z,101441.36
2018-10-09T05:06:36.340Z,101436.17
2018-10-09T05:09:07.751Z,101434.67
2018-10-09T05:11:35.948Z,101436.42
2018-10-09T05:14:04.199Z,101438.69
2018-10-09T05:16:32.474Z,101442.70
2018-10-09T05:19:00.680Z,101445.52
2018-10-09T05:21:28.907Z,101439.42
2018-10-09T05:23:57.205Z,101442.99
2018-10-09T05:26:25.452Z,101449.05
2018-10-09T05:28:54.029Z,101440.72
2018-10-09T05:31:22.399Z,101434.13
2018-10-09T05:33:54.112Z,101437.47
2018-10-09T05:36:22.371Z,101438.73
2018-10-09T05:38:50.601Z,101441.25
2018-10-09T05:41:18.840Z,101443.42
2018-10-09T05:43:47.087Z,101446.44
2018-10-09T05:46:17.330Z,101444.19
2018-10-09T05:48:45.521Z,101445.91
2018-10-09T05:51:13.772Z,101452.66
2018-10-09T05:53:41.974Z,101452.88
2018-10-09T05:56:10.213Z,101451.25
2018-10-09T05:58:38.424Z,101450.94
2018-10-09T06:01:06.849Z,101453.64
2018-10-09T06:03:35.065Z,101459.94
2018-10-09T06:06:03.373Z,101467.98
2018-10-09T06:08:31.721Z,101465.39
2018-10-09T06:11:00.073Z,101469.25
2018-10-09T06:13:29.361Z,101473.64
2018-10-09T06:15:58.454Z,101475.25
2018-10-09T06:18:26.699Z,101479.17
2018-10-09T06:20:54.934Z,101476.62
2018-10-09T06:23:24.091Z,101479.10
2018-10-09T06:25:53.384Z,101476.01
2018-10-09T06:28:21.626Z,101476.39
2018-10-09T06:30:49.859Z,101487.08
2018-10-09T06:33:18.133Z,101489.70
2018-10-09T06:35:46.360Z,101489.25
2018-10-09T06:38:14.592Z,101495.08
2018-10-09T06:40:42.874Z,101497.64
2018-10-09T06:43:11.049Z,101494.09
2018-10-09T06:45:39.269Z,101497.70
2018-10-09T06:48:07.573Z,101497.78
2018-10-09T06:50:35.817Z,101506.72
2018-10-09T06:53:04.074Z,101502.11
2018-10-09T06:55:32.382Z,101508.06
2018-10-09T06:58:00.621Z,101518.02
2018-10-09T07:00:28.883Z,101524.22
2018-10-09T07:02:59.905Z,101524.52
2018-10-09T07:05:28.337Z,101527.96
2018-10-09T07:07:57.045Z,101533.95
2018-10-09T07:10:25.362Z,101530.81
2018-10-09T07:12:53.650Z,101537.12
2018-10-09T07:15:21.873Z,101534.45
2018-10-09T07:17:53.516Z,101539.41
2018-10-09T07:20:21.741Z,101542.39
2018-10-09T07:22:49.960Z,101543.73
2018-10-09T07:25:18.197Z,101547.34
2018-10-09T07:27:46.518Z,101560.84
2018-10-09T07:30:14.669Z,101559.05
2018-10-09T07:32:42.915Z,101570.27
2018-10-09T07:35:11.635Z,101570.62
2018-10-09T07:37:41.079Z,101577.92
2018-10-09T07:40:09.290Z,101573.23
2018-10-09T07:42:39.530Z,101577.52
2018-10-09T07:45:07.853Z,101574.33
2018-10-09T07:47:36.109Z,101581.22
2018-10-09T07:50:04.556Z,101583.44
2018-10-09T07:52:32.854Z,101582.03
2018-10-09T07:55:01.221Z,101579.48
2018-10-09T07:57:29.441Z,101590.13
2018-10-09T07:59:59.722Z,101591.63
2018-10-09T08:02:29.008Z,101592.19
2018-10-09T08:05:02.090Z,101594.98
2018-10-09T08:07:31.337Z,101593.97
2018-10-09T08:09:59.604Z,101598.34
2018-10-09T08:12:29.907Z,101599.58
2018-10-09T08:15:00.169Z,101590.09
2018-10-09T08:17:28.421Z,101594.28
2018-10-09T08:19:56.778Z,101594.44
2018-10-09T08:22:25.129Z,101585.89
2018-10-09T08:24:53.469Z,101587.48
2018-10-09T08:27:25.016Z,101598.36
2018-10-09T08:29:57.724Z,101592.78
2018-10-09T08:32:26.063Z,101594.52
2018-10-09T08:34:54.265Z,101595.36
2018-10-09T08:37:25.825Z,101605.03
2018-10-09T08:39:54.134Z,101601.80
2018-10-09T08:42:22.356Z,101604.48
2018-10-09T08:44:50.565Z,101597.59
2018-10-09T08:47:20.926Z,101594.55
2018-10-09T08:49:51.197Z,101588.48
2018-10-09T08:52:19.498Z,101600.64
2018-10-09T08:54:47.785Z,101597.66
2018-10-09T08:57:16.071Z,101596.35
2018-10-09T08:59:46.293Z,101592.45
2018-10-09T09:02:14.553Z,101592.87
2018-10-09T09:04:42.759Z,101593.33
2018-10-09T09:07:10.966Z,101591.55
2018-10-09T09:09:42.697Z,101588.43
2018-10-09T09:12:10.842Z,101595.91
2018-10-09T09:14:39.058Z,101591.88
2018-10-09T09:17:07.295Z,101593.23
2018-10-09T09:19:35.665Z,101595.41
2018-10-09T09:22:03.908Z,101594.12
2018-10-09T09:24:33.214Z,101586.75
2018-10-09T09:27:01.788Z,101589.31
2018-10-09T09:29:30.065Z,101592.31
2018-10-09T09:31:59.366Z,101591.00
2018-10-09T09:34:27.637Z,101586.20
2018-10-09T09:36:55.908Z,101578.75
2018-10-09T09:39:24.212Z,101580.14
2018-10-09T09:41:52.463Z,101579.23
2018-10-09T09:44:20.831Z,101572.73
2018-10-09T09:46:49.117Z,101573.56
2018-10-09T09:49:18.401Z,101578.67
2018-10-09T09:51:46.741Z,101569.98
2018-10-09T09:54:15.081Z,101580.33
2018-10-09T09:56:43.366Z,101577.63
2018-10-09T09:59:11.785Z,101574.54
2018-10-09T10:01:41.506Z,101571.48
2018-10-09T10:04:10.032Z,101572.65
2018-10-09T10:06:38.290Z,101567.68
2018-10-09T10:09:07.567Z,101564.04
2018-10-09T10:11:35.843Z,101563.94
2018-10-09T10:14:04.086Z,101570.62
2018-10-09T10:16:38.861Z,101566.69
2018-10-09T10:19:07.338Z,101569.08
2018-10-09T10:21:48.437Z,101567.52
2018-10-09T10:24:22.378Z,101568.51
2018-10-09T10:26:52.697Z,101561.87
2018-10-09T10:29:21.991Z,101564.36
2018-10-09T10:31:50.377Z,101561.12
2018-10-09T10:34:20.905Z,101563.05
2018-10-09T10:36:50.504Z,101557.80
2018-10-09T10:39:19.449Z,101557.21
2018-10-09T10:41:51.008Z,101551.59
2018-10-09T10:44:19.249Z,101554.43
2018-10-09T10:46:47.515Z,101550.67
2018-10-09T10:49:16.805Z,101552.25
2018-10-09T10:51:45.670Z,101548.52
2018-10-09T10:54:15.962Z,101548.58
2018-10-09T10:56:44.194Z,101544.33
2018-10-09T10:59:12.414Z,101537.57
2018-10-09T11:01:40.707Z,101537.12
2018-10-09T11:06:48.350Z,101542.18
2018-10-09T11:09:17.659Z,101541.81
2018-10-09T11:11:47.977Z,101541.81
2018-10-09T11:14:16.282Z,101540.52
2018-10-09T11:16:44.529Z,101532.36
2018-10-09T11:19:12.740Z,101530.04
2018-10-09T11:21:41.061Z,101523.55
2018-10-09T11:24:09.205Z,101530.80
2018-10-09T11:26:38.521Z,101515.55
2018-10-09T11:29:06.744Z,101509.06
2018-10-09T11:31:34.985Z,101504.08
2018-10-09T11:34:03.226Z,101497.25
2018-10-09T11:36:31.461Z,101488.24
2018-10-09T11:38:59.778Z,101494.30
2018-10-09T11:41:28.037Z,101481.38
2018-10-09T11:43:56.253Z,101476.04
2018-10-09T11:46:24.542Z,101475.60
2018-10-09T11:48:52.777Z,101473.50
2018-10-09T11:51:21.098Z,101468.34
2018-10-09T11:53:49.345Z,101467.14
2018-10-09T11:56:17.573Z,101458.07
2018-10-09T11:58:45.899Z,101466.30
2018-10-09T12:01:14.056Z,101457.06
2018-10-09T12:03:42.257Z,101455.27
2018-10-09T12:06:10.501Z,101450.53
2018-10-09T12:08:38.748Z,101448.27
2018-10-09T12:11:07.088Z,101454.33
2018-10-09T12:13:35.271Z,101444.98
2018-10-09T12:16:03.522Z,101437.08
2018-10-09T12:18:31.882Z,101439.50
2018-10-09T12:21:00.117Z,101427.03
2018-10-09T12:23:28.350Z,101431.92
2018-10-09T12:25:56.604Z,101430.17
2018-10-09T12:28:24.861Z,101431.69
2018-10-09T12:30:53.089Z,101434.78
2018-10-09T12:33:21.394Z,101428.02
2018-10-09T12:35:49.616Z,101425.25
2018-10-09T12:38:17.933Z,101422.12
2018-10-09T12:40:46.290Z,101418.39
2018-10-09T12:43:14.568Z,101409.54
2018-10-09T12:45:42.794Z,101407.10
2018-10-09T12:48:13.145Z,101406.72
2018-10-09T12:50:41.390Z,101401.38
2018-10-09T12:53:09.633Z,101399.66
2018-10-09T12:55:37.859Z,101405.75
2018-10-09T12:58:06.073Z,101404.27
2018-10-09T13:00:34.313Z,101397.41
2018-10-09T13:03:02.593Z,101396.31
2018-10-09T13:05:30.844Z,101396.41
2018-10-09T13:07:59.093Z,101396.80
2018-10-09T13:10:27.390Z,101393.03
2018-10-09T13:12:57.709Z,101393.13
2018-10-09T13:15:26.363Z,101399.18
2018-10-09T13:17:54.689Z,101391.17
2018-10-09T13:20:24.050Z,101383.61
2018-10-09T13:22:52.486Z,101390.63
2018-10-09T13:25:20.922Z,101398.15
2018-10-09T13:27:49.126Z,101390.09
2018-10-09T13:30:17.376Z,101385.38
2018-10-09T13:32:46.675Z,101378.45
2018-10-09T13:35:14.905Z,101374.26
2018-10-09T13:37:43.146Z,101375.17
2018-10-09T13:40:11.397Z,101372.08
2018-10-09T13:42:39.650Z,101368.93
2018-10-09T13:45:07.953Z,101369.45
2018-10-09T13:47:36.298Z,101365.93
2018-10-09T13:50:04.502Z,101368.30
2018-10-09T13:52:32.820Z,101372.54
2018-10-09T13:55:01.141Z,101368.23
2018-10-09T13:57:29.431Z,101365.17
2018-10-09T13:59:57.669Z,101369.27
2018-10-09T14:02:26.082Z,101360.24
2018-10-09T14:04:54.413Z,101362.94
2018-10-09T14:07:22.649Z,101361.52
2018-10-09T14:09:50.880Z,101360.75
2018-10-09T14:12:19.307Z,101354.26
2018-10-09T14:14:47.517Z,101359.34
2018-10-09T14:17:15.733Z,101354.50
2018-10-09T14:19:44.028Z,101349.67
2018-10-09T14:22:12.505Z,101349.70
2018-10-09T14:24:43.897Z,101344.32
2018-10-09T14:27:12.125Z,101341.95
2018-10-09T14:29:40.387Z,101345.80
2018-10-09T14:32:08.629Z,101338.39
2018-10-09T14:34:36.863Z,101337.20
2018-10-09T14:37:05.192Z,101332.05
2018-10-09T14:39:33.406Z,101341.10
2018-10-09T14:42:01.653Z,101346.97
2018-10-09T14:44:29.933Z,101346.16
2018-10-09T14:46:58.178Z,101346.31
2018-10-09T14:49:27.370Z,101345.04
2018-10-09T14:51:55.561Z,101350.61
2018-10-09T14:54:24.232Z,101343.38
2018-10-09T14:56:52.521Z,101339.27
2018-10-09T14:59:20.824Z,101339.99
2018-10-09T15:01:49.091Z,101345.07
2018-10-09T15:04:17.336Z,101340.11
2018-10-09T15:06:52.601Z,101341.17
2018-10-09T15:09:20.900Z,101351.56
2018-10-09T15:11:49.135Z,101350.75
2018-10-09T15:14:18.783Z,101343.41
2018-10-09T15:16:48.265Z,101346.34
2018-10-09T15:19:16.404Z,101347.61
2018-10-09T15:21:47.105Z,101338.52
2018-10-09T15:24:15.309Z,101347.98
2018-10-09T15:26:43.582Z,101341.91
2018-10-09T15:29:11.939Z,101341.84
2018-10-09T15:31:40.052Z,101342.44
2018-10-09T15:34:08.261Z,101337.19
2018-10-09T15:36:36.499Z,101336.14
2018-10-09T15:39:07.660Z,101345.97
2018-10-09T15:41:35.995Z,101343.25
2018-10-09T15:44:04.172Z,101339.93
2018-10-09T15:46:32.427Z,101341.48
2018-10-09T15:49:00.630Z,101343.94
2018-10-09T15:51:28.909Z,101346.70
2018-10-09T15:53:57.126Z,101348.63
2018-10-09T15:56:25.385Z,101341.11
2018-10-09T15:58:53.689Z,101341.64
2018-10-09T16:01:21.906Z,101343.27
2018-10-09T16:03:50.171Z,101344.08
2018-10-09T16:06:18.401Z,101343.38
2018-10-09T16:08:46.674Z,101347.07
2018-10-09T16:11:14.941Z,101348.27
2018-10-09T16:13:44.226Z,101346.86
2018-10-09T16:16:14.682Z,101348.87
2018-10-09T16:18:42.937Z,101354.17
2018-10-09T16:21:11.225Z,101351.05
2018-10-09T16:23:39.422Z,101358.03
2018-10-09T16:26:07.701Z,101354.70
2018-10-09T16:28:35.901Z,101359.45
2018-10-09T16:31:04.113Z,101357.09
2018-10-09T16:33:32.393Z,101363.67
2018-10-09T16:36:00.617Z,101360.81
2018-10-09T16:38:28.845Z,101361.78
2018-10-09T16:40:57.110Z,101360.34
2018-10-09T16:43:25.322Z,101362.30
2018-10-09T16:45:53.717Z,101360.14
2018-10-09T16:48:23.018Z,101358.27
2018-10-09T16:50:51.326Z,101363.13
2018-10-09T16:53:19.578Z,101369.66
2018-10-09T16:55:47.790Z,101368.91
2018-10-09T16:58:16.013Z,101376.73
2018-10-09T17:00:44.246Z,101368.92
2018-10-09T17:03:12.464Z,101372.70
2018-10-09T17:05:40.784Z,101380.02
2018-10-09T17:08:09.097Z,101375.73
2018-10-09T17:10:37.357Z,101384.92
2018-10-09T17:13:05.602Z,101388.09
2018-10-09T17:15:33.937Z,101386.98
2018-10-09T17:18:02.146Z,101386.75
2018-10-09T17:20:30.357Z,101392.61
2018-10-09T17:22:58.605Z,101401.56
2018-10-09T17:25:26.805Z,101396.67
2018-10-09T17:27:55.176Z,101396.05
2018-10-09T17:30:23.401Z,101387.21
2018-10-09T17:32:52.305Z,101398.98
2018-10-09T17:35:20.618Z,101396.95
2018-10-09T17:37:52.222Z,101397.52
2018-10-09T17:40:20.525Z,101404.13
2018-10-09T17:42:49.446Z,101411.42
2018-10-09T17:45:17.724Z,101411.20
2018-10-09T17:47:45.991Z,101410.83
2018-10-09T17:50:14.215Z,101413.55
2018-10-09T17:52:42.466Z,101412.63
2018-10-09T17:55:10.737Z,101415.23
2018-10-09T17:57:39.205Z,101416.19
2018-10-09T18:00:08.388Z,101403.46
2018-10-09T18:02:36.764Z,101410.11
2018-10-09T18:05:05.386Z,101417.42
2018-10-09T18:07:33.606Z,101413.36
2018-10-09T18:10:01.991Z,101413.48
2018-10-09T18:12:30.210Z,101410.84
2018-10-09T18:14:58.493Z,101416.61
2018-10-09T18:17:26.739Z,101421.14
2018-10-09T18:19:54.974Z,101420.39
2018-10-09T18:22:23.173Z,101417.83
2018-10-09T18:24:51.511Z,101420.21
2018-10-09T18:27:19.733Z,101422.98
2018-10-09T18:29:47.971Z,101427.48
2018-10-09T18:32:16.206Z,101421.95
2018-10-09T18:34:44.504Z,101427.69
2018-10-09T18:37:12.763Z,101430.11
2018-10-09T18:39:41.025Z,101429.66
2018-10-09T18:42:09.282Z,101431.58
2018-10-09T18:44:37.584Z,101432.12
2018-10-09T18:47:10.015Z,101430.52
2018-10-09T18:49:38.257Z,101433.09
2018-10-09T18:52:06.510Z,101435.68
2018-10-09T18:54:34.729Z,101435.73
2018-10-09T18:57:02.997Z,101430.88
2018-10-09T18:59:31.250Z,101434.17
2018-10-09T19:01:59.469Z,101435.34
2018-10-09T19:04:27.725Z,101437.34
2018-10-09T19:06:56.097Z,101438.50
2018-10-09T19:09:24.332Z,101434.91
2018-10-09T19:11:52.557Z,101440.25
2018-10-09T19:14:20.871Z,101435.26
2018-10-09T19:16:50.166Z,101432.38
2018-10-09T19:19:18.427Z,101446.20
2018-10-09T19:21:53.354Z,101436.36
2018-10-09T19:24:21.635Z,101448.86
2018-10-09T19:26:49.845Z,101445.53
2018-10-09T19:29:18.091Z,101443.30
2018-10-09T19:31:46.410Z,101443.78
2018-10-09T19:34:14.636Z,101443.35
2018-10-09T19:36:42.878Z,101457.48
2018-10-09T19:39:13.026Z,101453.91
2018-10-09T19:41:41.269Z,101462.21
2018-10-09T19:44:09.525Z,101464.47
2018-10-09T19:46:38.429Z,101464.87
2018-10-09T19:49:06.722Z,101473.16
2018-10-09T19:51:34.999Z,101469.75
2018-10-09T19:54:03.232Z,101467.13
2018-10-09T19:56:31.853Z,101468.91
2018-10-09T19:59:00.166Z,101471.09
2018-10-09T20:01:28.438Z,101470.02
2018-10-09T20:03:56.665Z,101468.71
2018-10-09T20:06:25.945Z,101471.70
2018-10-09T20:08:54.192Z,101473.55
2018-10-09T20:11:22.413Z,101468.24
2018-10-09T20:13:50.624Z,101467.77
2018-10-09T20:16:18.873Z,101468.17
2018-10-09T20:18:47.174Z,101462.97
2018-10-09T20:21:15.410Z,101462.47
2018-10-09T20:23:43.619Z,101462.09
2018-10-09T20:26:11.918Z,101463.98
2018-10-09T20:28:40.146Z,101462.60
2018-10-09T20:31:08.362Z,101469.95
2018-10-09T20:33:36.586Z,101472.70
2018-10-09T20:36:04.803Z,101468.55
2018-10-09T20:38:33.089Z,101468.92
2018-10-09T20:41:01.378Z,101463.60
2018-10-09T20:43:29.602Z,101456.73
2018-10-09T20:45:57.849Z,101461.16
2018-10-09T20:48:26.102Z,101461.76
2018-10-09T20:50:54.331Z,101469.19
2018-10-09T20:53:22.574Z,101469.99
2018-10-09T20:55:50.873Z,101474.86
2018-10-09T20:58:19.138Z,101469.69
2018-10-09T21:00:47.347Z,101475.41
2018-10-09T21:03:15.601Z,101469.72
2018-10-09T21:05:43.952Z,101470.18
2018-10-09T21:08:12.094Z,101473.66
2018-10-09T21:10:40.293Z,101468.95
2018-10-09T21:13:08.516Z,101469.81
2018-10-09T21:15:36.749Z,101464.20
2018-10-09T21:18:05.002Z,101469.02
2018-10-09T21:20:33.230Z,101464.73
2018-10-09T21:23:01.445Z,101459.52
2018-10-09T21:25:29.717Z,101460.83
2018-10-09T21:27:57.931Z,101457.67
2018-10-09T21:30:27.218Z,101455.97
2018-10-09T21:32:55.443Z,101457.31
2018-10-09T21:35:23.649Z,101456.36
2018-10-09T21:37:51.885Z,101461.20
2018-10-09T21:40:20.132Z,101456.04
2018-10-09T21:42:48.326Z,101452.69
2018-10-09T21:45:16.598Z,101455.72
2018-10-09T21:47:50.180Z,101455.33
2018-10-09T21:50:18.450Z,101452.72
2018-10-09T21:52:46.668Z,101457.95
2018-10-09T21:55:19.798Z,101451.81
2018-10-09T21:57:48.282Z,101460.49
2018-10-09T22:00:16.528Z,101459.64
2018-10-09T22:02:44.807Z,101461.33
2018-10-09T22:05:13.036Z,101460.97
2018-10-09T22:07:41.296Z,101464.88
2018-10-09T22:10:09.533Z,101460.07
2018-10-09T22:12:37.777Z,101467.97
2018-10-09T22:15:06.254Z,101460.61
2018-10-09T22:17:34.521Z,101465.39
2018-10-09T22:20:02.779Z,101464.52
2018-10-09T22:22:31.010Z,101462.31
2018-10-09T22:24:59.246Z,101465.35
2018-10-09T22:27:27.491Z,101459.72
2018-10-09T22:29:55.736Z,101461.03
2018-10-09T22:32:23.966Z,101459.30
2018-10-09T22:34:52.200Z,101456.24
2018-10-09T22:37:21.537Z,101455.81
2018-10-09T22:39:49.757Z,101453.66
2018-10-09T22:42:17.980Z,101451.47
2018-10-09T22:44:46.181Z,101447.98
2018-10-09T22:47:14.406Z,101458.00
2018-10-09T22:49:42.655Z,101452.78
2018-10-09T22:52:10.898Z,101457.09
2018-10-09T22:54:39.160Z,101449.72
2018-10-09T22:57:07.402Z,101458.44
2018-10-09T22:59:35.678Z,101459.33
2018-10-09T23:02:03.917Z,101453.67
2018-10-09T23:04:32.125Z,101450.63
2018-10-09T23:07:00.355Z,101446.71
2018-10-09T23:09:28.576Z,101445.86
2018-10-09T23:11:56.881Z,101456.27
2018-10-09T23:14:25.244Z,101449.75
2018-10-09T23:16:53.539Z,101449.31
2018-10-09T23:19:23.891Z,101447.58
2018-10-09T23:21:52.109Z,101452.39
2018-10-09T23:24:20.346Z,101447.59
2018-10-09T23:26:48.638Z,101449.34
2018-10-09T23:29:16.862Z,101446.28
2018-10-09T23:31:45.154Z,101462.81
2018-10-09T23:34:13.370Z,101458.92
2018-10-09T23:36:41.622Z,101465.00
2018-10-09T23:39:09.905Z,101452.83
2018-10-09T23:41:38.126Z,101456.72
2018-10-09T23:44:06.437Z,101456.30
2018-10-09T23:46:34.700Z,101451.96
2018-10-09T23:49:02.957Z,101451.52
2018-10-09T23:51:31.191Z,101444.56
2018-10-09T23:53:59.446Z,101448.02
2018-10-09T23:56:27.743Z,101444.98
2018-10-09T23:58:55.999Z,101443.27
